sensor_id;sensor_type;location;lat;lon;timestamp;P1;durP1;ratioP1;P2;durP2;ratioP2
72198;SDS011;72266;51.056;16.880;2023-11-21T00:00:38;10.00;;;2.20;;
72198;SDS011;72266;51.056;16.880;2023-11-21T00:03:34;6.30;;;1.40;;
72198;SDS011;72266;51.056;16.880;2023-11-21T00:06:08;8.40;;;1.90;;
72198;SDS011;72266;51.056;16.880;2023-11-21T00:08:41;7.60;;;2.00;;
72198;SDS011;72266;51.056;16.880;2023-11-21T00:11:14;7.70;;;1.90;;
72198;SDS011;72266;51.056;16.880;2023-11-21T00:13:47;9.60;;;2.60;;
72198;SDS011;72266;51.056;16.880;2023-11-21T00:16:20;8.60;;;1.80;;
72198;SDS011;72266;51.056;16.880;2023-11-21T00:18:53;6.60;;;1.80;;
72198;SDS011;72266;51.056;16.880;2023-11-21T00:21:26;11.30;;;2.30;;
72198;SDS011;72266;51.056;16.880;2023-11-21T00:23:59;8.00;;;2.20;;
72198;SDS011;72266;51.056;16.880;2023-11-21T00:26:32;9.20;;;2.10;;
72198;SDS011;72266;51.056;16.880;2023-11-21T00:29:08;7.80;;;2.00;;
72198;SDS011;72266;51.056;16.880;2023-11-21T00:31:41;11.00;;;2.20;;
72198;SDS011;72266;51.056;16.880;2023-11-21T00:34:14;9.70;;;2.10;;
72198;SDS011;72266;51.056;16.880;2023-11-21T00:36:48;9.10;;;2.10;;
72198;SDS011;72266;51.056;16.880;2023-11-21T00:39:21;9.40;;;2.20;;
72198;SDS011;72266;51.056;16.880;2023-11-21T00:41:55;10.40;;;2.70;;
72198;SDS011;72266;51.056;16.880;2023-11-21T00:44:28;9.30;;;2.80;;
72198;SDS011;72266;51.056;16.880;2023-11-21T00:47:01;7.80;;;1.90;;
72198;SDS011;72266;51.056;16.880;2023-11-21T00:49:35;7.50;;;1.80;;
72198;SDS011;72266;51.056;16.880;2023-11-21T00:52:11;9.10;;;2.30;;
72198;SDS011;72266;51.056;16.880;2023-11-21T00:54:44;10.30;;;3.00;;
72198;SDS011;72266;51.056;16.880;2023-11-21T00:57:18;9.20;;;2.50;;
72198;SDS011;72266;51.056;16.880;2023-11-21T00:59:51;9.50;;;2.40;;
72198;SDS011;72266;51.056;16.880;2023-11-21T01:02:24;8.70;;;2.40;;
72198;SDS011;72266;51.056;16.880;2023-11-21T01:04:57;9.20;;;2.90;;
72198;SDS011;72266;51.056;16.880;2023-11-21T01:07:30;11.60;;;2.90;;
72198;SDS011;72266;51.056;16.880;2023-11-21T01:10:04;11.10;;;2.50;;
72198;SDS011;72266;51.056;16.880;2023-11-21T01:12:37;10.00;;;2.60;;
72198;SDS011;72266;51.056;16.880;2023-11-21T01:15:11;8.10;;;2.00;;
72198;SDS011;72266;51.056;16.880;2023-11-21T01:17:45;7.90;;;2.20;;
72198;SDS011;72266;51.056;16.880;2023-11-21T01:20:19;9.00;;;2.40;;
72198;SDS011;72266;51.056;16.880;2023-11-21T01:22:52;8.00;;;2.40;;
72198;SDS011;72266;51.056;16.880;2023-11-21T01:25:25;10.20;;;2.70;;
72198;SDS011;72266;51.056;16.880;2023-11-21T01:27:58;9.70;;;2.60;;
72198;SDS011;72266;51.056;16.880;2023-11-21T01:30:31;11.00;;;3.20;;
72198;SDS011;72266;51.056;16.880;2023-11-21T01:33:05;9.40;;;3.20;;
72198;SDS011;72266;51.056;16.880;2023-11-21T01:35:38;9.40;;;3.00;;
72198;SDS011;72266;51.056;16.880;2023-11-21T01:38:11;9.20;;;3.10;;
72198;SDS011;72266;51.056;16.880;2023-11-21T01:40:47;10.80;;;2.90;;
72198;SDS011;72266;51.056;16.880;2023-11-21T01:43:20;10.30;;;2.50;;
72198;SDS011;72266;51.056;16.880;2023-11-21T01:45:53;11.40;;;3.00;;
72198;SDS011;72266;51.056;16.880;2023-11-21T01:48:27;9.50;;;2.90;;
72198;SDS011;72266;51.056;16.880;2023-11-21T01:51:01;9.10;;;3.10;;
72198;SDS011;72266;51.056;16.880;2023-11-21T01:53:35;11.50;;;2.60;;
72198;SDS011;72266;51.056;16.880;2023-11-21T01:56:08;11.20;;;2.90;;
72198;SDS011;72266;51.056;16.880;2023-11-21T01:58:41;10.70;;;3.00;;
72198;SDS011;72266;51.056;16.880;2023-11-21T02:01:17;9.50;;;2.70;;
72198;SDS011;72266;51.056;16.880;2023-11-21T02:03:49;8.90;;;2.50;;
72198;SDS011;72266;51.056;16.880;2023-11-21T02:06:22;8.10;;;2.10;;
72198;SDS011;72266;51.056;16.880;2023-11-21T02:08:56;10.50;;;2.90;;
72198;SDS011;72266;51.056;16.880;2023-11-21T02:11:29;11.30;;;2.80;;
72198;SDS011;72266;51.056;16.880;2023-11-21T02:14:04;9.50;;;3.10;;
72198;SDS011;72266;51.056;16.880;2023-11-21T02:16:39;8.80;;;2.70;;
72198;SDS011;72266;51.056;16.880;2023-11-21T02:19:19;9.30;;;2.90;;
72198;SDS011;72266;51.056;16.880;2023-11-21T02:21:52;8.30;;;2.90;;
72198;SDS011;72266;51.056;16.880;2023-11-21T02:24:28;11.20;;;2.90;;
72198;SDS011;72266;51.056;16.880;2023-11-21T02:27:01;9.20;;;2.80;;
72198;SDS011;72266;51.056;16.880;2023-11-21T02:29:36;9.60;;;2.40;;
72198;SDS011;72266;51.056;16.880;2023-11-21T02:32:09;9.10;;;2.40;;
72198;SDS011;72266;51.056;16.880;2023-11-21T02:34:42;10.10;;;3.10;;
72198;SDS011;72266;51.056;16.880;2023-11-21T02:37:15;11.60;;;3.30;;
72198;SDS011;72266;51.056;16.880;2023-11-21T02:39:48;12.50;;;3.00;;
72198;SDS011;72266;51.056;16.880;2023-11-21T02:42:22;11.50;;;3.10;;
72198;SDS011;72266;51.056;16.880;2023-11-21T02:44:55;10.10;;;2.80;;
72198;SDS011;72266;51.056;16.880;2023-11-21T02:47:29;11.20;;;3.30;;
72198;SDS011;72266;51.056;16.880;2023-11-21T02:50:02;11.50;;;3.00;;
72198;SDS011;72266;51.056;16.880;2023-11-21T02:52:38;9.30;;;2.70;;
72198;SDS011;72266;51.056;16.880;2023-11-21T02:55:11;9.30;;;3.40;;
72198;SDS011;72266;51.056;16.880;2023-11-21T02:57:44;10.60;;;3.20;;
72198;SDS011;72266;51.056;16.880;2023-11-21T03:00:18;10.20;;;3.00;;
72198;SDS011;72266;51.056;16.880;2023-11-21T03:02:54;8.00;;;2.60;;
72198;SDS011;72266;51.056;16.880;2023-11-21T03:05:28;10.40;;;2.80;;
72198;SDS011;72266;51.056;16.880;2023-11-21T03:08:03;10.10;;;2.80;;
72198;SDS011;72266;51.056;16.880;2023-11-21T03:10:36;10.10;;;2.40;;
72198;SDS011;72266;51.056;16.880;2023-11-21T03:13:09;10.30;;;3.10;;
72198;SDS011;72266;51.056;16.880;2023-11-21T03:15:42;9.50;;;2.50;;
72198;SDS011;72266;51.056;16.880;2023-11-21T03:18:15;12.20;;;3.00;;
72198;SDS011;72266;51.056;16.880;2023-11-21T03:20:48;10.60;;;3.20;;
72198;SDS011;72266;51.056;16.880;2023-11-21T03:23:23;10.30;;;3.10;;
72198;SDS011;72266;51.056;16.880;2023-11-21T03:25:56;10.30;;;3.10;;
72198;SDS011;72266;51.056;16.880;2023-11-21T03:28:29;8.40;;;2.70;;
72198;SDS011;72266;51.056;16.880;2023-11-21T03:31:03;12.30;;;2.90;;
72198;SDS011;72266;51.056;16.880;2023-11-21T03:33:38;10.30;;;3.20;;
72198;SDS011;72266;51.056;16.880;2023-11-21T03:36:12;10.70;;;2.80;;
72198;SDS011;72266;51.056;16.880;2023-11-21T03:38:45;11.00;;;2.80;;
72198;SDS011;72266;51.056;16.880;2023-11-21T03:41:19;10.50;;;2.90;;
72198;SDS011;72266;51.056;16.880;2023-11-21T03:43:52;10.50;;;3.10;;
72198;SDS011;72266;51.056;16.880;2023-11-21T03:46:25;10.80;;;3.20;;
72198;SDS011;72266;51.056;16.880;2023-11-21T03:48:58;10.00;;;3.50;;
72198;SDS011;72266;51.056;16.880;2023-11-21T03:51:31;10.50;;;3.00;;
72198;SDS011;72266;51.056;16.880;2023-11-21T03:54:06;13.20;;;3.50;;
72198;SDS011;72266;51.056;16.880;2023-11-21T03:56:41;9.20;;;3.10;;
72198;SDS011;72266;51.056;16.880;2023-11-21T03:59:14;11.80;;;3.40;;
72198;SDS011;72266;51.056;16.880;2023-11-21T04:01:47;9.20;;;2.60;;
72198;SDS011;72266;51.056;16.880;2023-11-21T04:04:20;8.90;;;2.60;;
72198;SDS011;72266;51.056;16.880;2023-11-21T04:06:54;12.60;;;3.20;;
72198;SDS011;72266;51.056;16.880;2023-11-21T04:09:27;10.80;;;2.90;;
72198;SDS011;72266;51.056;16.880;2023-11-21T04:12:00;9.80;;;2.30;;
72198;SDS011;72266;51.056;16.880;2023-11-21T04:14:34;11.00;;;2.90;;
72198;SDS011;72266;51.056;16.880;2023-11-21T04:17:07;9.60;;;2.60;;
72198;SDS011;72266;51.056;16.880;2023-11-21T04:19:40;12.10;;;2.90;;
72198;SDS011;72266;51.056;16.880;2023-11-21T04:22:14;10.00;;;3.40;;
72198;SDS011;72266;51.056;16.880;2023-11-21T04:24:47;7.50;;;2.60;;
72198;SDS011;72266;51.056;16.880;2023-11-21T04:27:21;9.80;;;2.50;;
72198;SDS011;72266;51.056;16.880;2023-11-21T04:29:54;7.80;;;2.50;;
72198;SDS011;72266;51.056;16.880;2023-11-21T04:32:27;10.40;;;3.50;;
72198;SDS011;72266;51.056;16.880;2023-11-21T04:35:00;8.70;;;2.50;;
72198;SDS011;72266;51.056;16.880;2023-11-21T04:37:33;12.30;;;3.00;;
72198;SDS011;72266;51.056;16.880;2023-11-21T04:40:07;10.40;;;3.20;;
72198;SDS011;72266;51.056;16.880;2023-11-21T04:42:42;8.60;;;2.50;;
72198;SDS011;72266;51.056;16.880;2023-11-21T04:45:16;10.50;;;3.10;;
72198;SDS011;72266;51.056;16.880;2023-11-21T04:47:49;11.90;;;3.30;;
72198;SDS011;72266;51.056;16.880;2023-11-21T04:50:22;12.20;;;3.60;;
72198;SDS011;72266;51.056;16.880;2023-11-21T04:52:57;9.90;;;2.70;;
72198;SDS011;72266;51.056;16.880;2023-11-21T04:55:30;9.70;;;2.50;;
72198;SDS011;72266;51.056;16.880;2023-11-21T04:58:03;9.70;;;3.00;;
72198;SDS011;72266;51.056;16.880;2023-11-21T05:00:36;12.10;;;2.90;;
72198;SDS011;72266;51.056;16.880;2023-11-21T05:03:09;11.70;;;2.90;;
72198;SDS011;72266;51.056;16.880;2023-11-21T05:05:43;12.20;;;3.10;;
72198;SDS011;72266;51.056;16.880;2023-11-21T05:08:16;11.30;;;3.40;;
72198;SDS011;72266;51.056;16.880;2023-11-21T05:10:50;10.40;;;2.70;;
72198;SDS011;72266;51.056;16.880;2023-11-21T05:13:23;12.80;;;3.20;;
72198;SDS011;72266;51.056;16.880;2023-11-21T05:15:57;10.80;;;3.30;;
72198;SDS011;72266;51.056;16.880;2023-11-21T05:18:33;11.00;;;3.30;;
72198;SDS011;72266;51.056;16.880;2023-11-21T05:21:07;10.00;;;3.20;;
72198;SDS011;72266;51.056;16.880;2023-11-21T05:23:40;10.40;;;3.00;;
72198;SDS011;72266;51.056;16.880;2023-11-21T05:26:14;9.70;;;3.00;;
72198;SDS011;72266;51.056;16.880;2023-11-21T05:28:47;11.10;;;3.00;;
72198;SDS011;72266;51.056;16.880;2023-11-21T05:31:20;10.50;;;3.30;;
72198;SDS011;72266;51.056;16.880;2023-11-21T05:33:54;10.50;;;3.20;;
72198;SDS011;72266;51.056;16.880;2023-11-21T05:36:27;8.50;;;2.60;;
72198;SDS011;72266;51.056;16.880;2023-11-21T05:39:00;11.80;;;3.20;;
72198;SDS011;72266;51.056;16.880;2023-11-21T05:41:34;8.70;;;2.50;;
72198;SDS011;72266;51.056;16.880;2023-11-21T05:44:07;9.70;;;2.90;;
72198;SDS011;72266;51.056;16.880;2023-11-21T05:46:41;12.60;;;3.60;;
72198;SDS011;72266;51.056;16.880;2023-11-21T05:49:15;9.40;;;3.10;;
72198;SDS011;72266;51.056;16.880;2023-11-21T05:51:52;11.70;;;3.30;;
72198;SDS011;72266;51.056;16.880;2023-11-21T05:54:26;11.20;;;3.30;;
72198;SDS011;72266;51.056;16.880;2023-11-21T05:56:59;13.30;;;3.20;;
72198;SDS011;72266;51.056;16.880;2023-11-21T05:59:33;10.80;;;3.20;;
72198;SDS011;72266;51.056;16.880;2023-11-21T06:02:07;10.80;;;3.40;;
72198;SDS011;72266;51.056;16.880;2023-11-21T06:04:40;11.30;;;3.10;;
72198;SDS011;72266;51.056;16.880;2023-11-21T06:07:14;11.90;;;3.70;;
72198;SDS011;72266;51.056;16.880;2023-11-21T06:09:47;7.40;;;2.60;;
72198;SDS011;72266;51.056;16.880;2023-11-21T06:12:21;11.50;;;2.70;;
72198;SDS011;72266;51.056;16.880;2023-11-21T06:14:54;11.00;;;3.40;;
72198;SDS011;72266;51.056;16.880;2023-11-21T06:17:27;12.70;;;3.40;;
72198;SDS011;72266;51.056;16.880;2023-11-21T06:20:01;10.20;;;2.90;;
72198;SDS011;72266;51.056;16.880;2023-11-21T06:22:39;10.80;;;3.10;;
72198;SDS011;72266;51.056;16.880;2023-11-21T06:25:14;11.30;;;4.40;;
72198;SDS011;72266;51.056;16.880;2023-11-21T06:27:47;9.50;;;3.20;;
72198;SDS011;72266;51.056;16.880;2023-11-21T06:30:21;11.40;;;3.00;;
72198;SDS011;72266;51.056;16.880;2023-11-21T06:32:55;10.60;;;3.20;;
72198;SDS011;72266;51.056;16.880;2023-11-21T06:35:30;11.00;;;3.10;;
72198;SDS011;72266;51.056;16.880;2023-11-21T06:38:05;8.70;;;2.70;;
72198;SDS011;72266;51.056;16.880;2023-11-21T06:40:39;11.20;;;3.10;;
72198;SDS011;72266;51.056;16.880;2023-11-21T06:43:12;11.20;;;3.00;;
72198;SDS011;72266;51.056;16.880;2023-11-21T06:45:46;11.50;;;3.60;;
72198;SDS011;72266;51.056;16.880;2023-11-21T06:48:19;14.50;;;3.80;;
72198;SDS011;72266;51.056;16.880;2023-11-21T06:50:52;12.80;;;2.80;;
72198;SDS011;72266;51.056;16.880;2023-11-21T06:53:26;8.70;;;3.10;;
72198;SDS011;72266;51.056;16.880;2023-11-21T06:55:59;10.00;;;3.00;;
72198;SDS011;72266;51.056;16.880;2023-11-21T06:58:33;9.50;;;3.00;;
72198;SDS011;72266;51.056;16.880;2023-11-21T07:01:07;12.70;;;2.80;;
72198;SDS011;72266;51.056;16.880;2023-11-21T07:03:40;9.90;;;3.00;;
72198;SDS011;72266;51.056;16.880;2023-11-21T07:06:14;11.40;;;3.40;;
72198;SDS011;72266;51.056;16.880;2023-11-21T07:08:49;10.10;;;3.00;;
72198;SDS011;72266;51.056;16.880;2023-11-21T07:11:23;9.30;;;2.80;;
72198;SDS011;72266;51.056;16.880;2023-11-21T07:13:56;10.60;;;2.80;;
72198;SDS011;72266;51.056;16.880;2023-11-21T07:16:32;10.70;;;3.00;;
72198;SDS011;72266;51.056;16.880;2023-11-21T07:19:07;11.10;;;3.20;;
72198;SDS011;72266;51.056;16.880;2023-11-21T07:21:42;14.50;;;4.30;;
72198;SDS011;72266;51.056;16.880;2023-11-21T07:24:15;11.50;;;3.50;;
72198;SDS011;72266;51.056;16.880;2023-11-21T07:26:48;13.00;;;3.60;;
72198;SDS011;72266;51.056;16.880;2023-11-21T07:29:26;10.70;;;3.70;;
72198;SDS011;72266;51.056;16.880;2023-11-21T07:31:59;12.00;;;3.60;;
72198;SDS011;72266;51.056;16.880;2023-11-21T07:34:33;12.40;;;3.80;;
72198;SDS011;72266;51.056;16.880;2023-11-21T07:37:06;13.60;;;3.60;;
72198;SDS011;72266;51.056;16.880;2023-11-21T07:39:40;10.80;;;3.40;;
72198;SDS011;72266;51.056;16.880;2023-11-21T07:42:14;10.10;;;3.30;;
72198;SDS011;72266;51.056;16.880;2023-11-21T07:44:47;10.80;;;3.90;;
72198;SDS011;72266;51.056;16.880;2023-11-21T07:47:22;13.70;;;4.20;;
72198;SDS011;72266;51.056;16.880;2023-11-21T07:49:57;12.50;;;3.90;;
72198;SDS011;72266;51.056;16.880;2023-11-21T07:52:33;15.80;;;3.90;;
72198;SDS011;72266;51.056;16.880;2023-11-21T07:55:06;12.10;;;4.10;;
72198;SDS011;72266;51.056;16.880;2023-11-21T07:57:41;13.00;;;4.20;;
72198;SDS011;72266;51.056;16.880;2023-11-21T08:00:15;11.20;;;4.20;;
72198;SDS011;72266;51.056;16.880;2023-11-21T08:02:51;14.60;;;4.30;;
72198;SDS011;72266;51.056;16.880;2023-11-21T08:05:25;11.80;;;4.10;;
72198;SDS011;72266;51.056;16.880;2023-11-21T08:08:06;11.70;;;3.40;;
72198;SDS011;72266;51.056;16.880;2023-11-21T08:10:39;13.30;;;4.40;;
72198;SDS011;72266;51.056;16.880;2023-11-21T08:13:13;13.40;;;4.50;;
72198;SDS011;72266;51.056;16.880;2023-11-21T08:15:48;13.80;;;4.00;;
72198;SDS011;72266;51.056;16.880;2023-11-21T08:18:21;12.70;;;3.90;;
72198;SDS011;72266;51.056;16.880;2023-11-21T08:20:55;11.50;;;4.20;;
72198;SDS011;72266;51.056;16.880;2023-11-21T08:23:29;11.80;;;4.20;;
72198;SDS011;72266;51.056;16.880;2023-11-21T08:26:02;11.50;;;4.20;;
72198;SDS011;72266;51.056;16.880;2023-11-21T08:28:36;13.10;;;4.10;;
72198;SDS011;72266;51.056;16.880;2023-11-21T08:31:10;13.30;;;4.60;;
72198;SDS011;72266;51.056;16.880;2023-11-21T08:33:45;11.30;;;4.10;;
72198;SDS011;72266;51.056;16.880;2023-11-21T08:36:18;12.20;;;4.20;;
72198;SDS011;72266;51.056;16.880;2023-11-21T08:38:52;11.30;;;3.60;;
72198;SDS011;72266;51.056;16.880;2023-11-21T08:41:26;13.90;;;4.80;;
72198;SDS011;72266;51.056;16.880;2023-11-21T08:44:00;14.60;;;5.20;;
72198;SDS011;72266;51.056;16.880;2023-11-21T08:46:36;11.90;;;4.60;;
72198;SDS011;72266;51.056;16.880;2023-11-21T08:49:12;12.50;;;4.60;;
72198;SDS011;72266;51.056;16.880;2023-11-21T08:51:45;10.60;;;4.00;;
72198;SDS011;72266;51.056;16.880;2023-11-21T08:54:19;13.10;;;4.30;;
72198;SDS011;72266;51.056;16.880;2023-11-21T08:56:52;15.80;;;4.20;;
72198;SDS011;72266;51.056;16.880;2023-11-21T08:59:27;10.90;;;4.50;;
72198;SDS011;72266;51.056;16.880;2023-11-21T09:02:01;11.50;;;4.20;;
72198;SDS011;72266;51.056;16.880;2023-11-21T09:04:34;13.10;;;4.30;;
72198;SDS011;72266;51.056;16.880;2023-11-21T09:07:09;10.40;;;3.60;;
72198;SDS011;72266;51.056;16.880;2023-11-21T09:09:42;11.70;;;3.40;;
72198;SDS011;72266;51.056;16.880;2023-11-21T09:12:15;12.10;;;3.50;;
72198;SDS011;72266;51.056;16.880;2023-11-21T09:14:49;9.00;;;3.20;;
72198;SDS011;72266;51.056;16.880;2023-11-21T09:17:22;10.00;;;3.20;;
72198;SDS011;72266;51.056;16.880;2023-11-21T09:19:56;11.10;;;3.30;;
72198;SDS011;72266;51.056;16.880;2023-11-21T09:22:29;10.50;;;3.40;;
72198;SDS011;72266;51.056;16.880;2023-11-21T09:25:03;12.20;;;3.80;;
72198;SDS011;72266;51.056;16.880;2023-11-21T09:27:38;13.20;;;4.30;;
72198;SDS011;72266;51.056;16.880;2023-11-21T09:30:12;10.60;;;3.40;;
72198;SDS011;72266;51.056;16.880;2023-11-21T09:32:46;11.60;;;3.60;;
72198;SDS011;72266;51.056;16.880;2023-11-21T09:35:20;9.30;;;3.00;;
72198;SDS011;72266;51.056;16.880;2023-11-21T09:37:54;9.40;;;2.60;;
72198;SDS011;72266;51.056;16.880;2023-11-21T09:40:27;10.10;;;2.90;;
72198;SDS011;72266;51.056;16.880;2023-11-21T09:43:01;9.90;;;2.80;;
72198;SDS011;72266;51.056;16.880;2023-11-21T09:45:38;9.30;;;2.10;;
72198;SDS011;72266;51.056;16.880;2023-11-21T09:48:11;11.30;;;2.50;;
72198;SDS011;72266;51.056;16.880;2023-11-21T09:50:46;9.00;;;2.80;;
72198;SDS011;72266;51.056;16.880;2023-11-21T09:53:23;8.20;;;2.90;;
72198;SDS011;72266;51.056;16.880;2023-11-21T09:55:59;9.90;;;3.30;;
72198;SDS011;72266;51.056;16.880;2023-11-21T09:58:33;7.90;;;2.50;;
72198;SDS011;72266;51.056;16.880;2023-11-21T10:01:06;8.40;;;2.50;;
72198;SDS011;72266;51.056;16.880;2023-11-21T10:03:40;9.70;;;2.80;;
72198;SDS011;72266;51.056;16.880;2023-11-21T10:06:14;10.00;;;2.80;;
72198;SDS011;72266;51.056;16.880;2023-11-21T10:08:47;10.20;;;3.20;;
72198;SDS011;72266;51.056;16.880;2023-11-21T10:11:24;10.40;;;3.00;;
72198;SDS011;72266;51.056;16.880;2023-11-21T10:13:58;8.60;;;2.70;;
72198;SDS011;72266;51.056;16.880;2023-11-21T10:16:32;9.70;;;3.10;;
72198;SDS011;72266;51.056;16.880;2023-11-21T10:19:07;9.10;;;2.90;;
72198;SDS011;72266;51.056;16.880;2023-11-21T10:21:46;9.00;;;3.40;;
72198;SDS011;72266;51.056;16.880;2023-11-21T10:24:19;10.10;;;3.20;;
72198;SDS011;72266;51.056;16.880;2023-11-21T10:26:52;8.70;;;2.60;;
72198;SDS011;72266;51.056;16.880;2023-11-21T10:29:28;8.90;;;3.00;;
72198;SDS011;72266;51.056;16.880;2023-11-21T10:32:05;9.10;;;2.60;;
72198;SDS011;72266;51.056;16.880;2023-11-21T10:34:40;9.20;;;3.30;;
72198;SDS011;72266;51.056;16.880;2023-11-21T10:37:13;8.00;;;3.10;;
72198;SDS011;72266;51.056;16.880;2023-11-21T10:39:49;11.80;;;3.60;;
72198;SDS011;72266;51.056;16.880;2023-11-21T10:42:22;11.00;;;3.30;;
72198;SDS011;72266;51.056;16.880;2023-11-21T10:44:57;9.30;;;3.30;;
72198;SDS011;72266;51.056;16.880;2023-11-21T10:47:33;11.00;;;3.80;;
72198;SDS011;72266;51.056;16.880;2023-11-21T10:50:07;10.10;;;3.70;;
72198;SDS011;72266;51.056;16.880;2023-11-21T10:52:42;12.50;;;3.60;;
72198;SDS011;72266;51.056;16.880;2023-11-21T10:55:18;8.60;;;2.90;;
72198;SDS011;72266;51.056;16.880;2023-11-21T10:57:54;10.00;;;3.40;;
72198;SDS011;72266;51.056;16.880;2023-11-21T11:00:28;10.40;;;4.00;;
72198;SDS011;72266;51.056;16.880;2023-11-21T11:03:01;10.00;;;3.60;;
72198;SDS011;72266;51.056;16.880;2023-11-21T11:05:36;9.80;;;3.40;;
72198;SDS011;72266;51.056;16.880;2023-11-21T11:08:11;12.10;;;4.20;;
72198;SDS011;72266;51.056;16.880;2023-11-21T11:10:50;11.20;;;4.30;;
72198;SDS011;72266;51.056;16.880;2023-11-21T11:13:23;9.90;;;3.80;;
72198;SDS011;72266;51.056;16.880;2023-11-21T11:15:57;8.60;;;3.20;;
72198;SDS011;72266;51.056;16.880;2023-11-21T11:18:31;9.30;;;3.60;;
72198;SDS011;72266;51.056;16.880;2023-11-21T11:21:11;10.40;;;3.10;;
72198;SDS011;72266;51.056;16.880;2023-11-21T11:23:56;9.30;;;3.30;;
72198;SDS011;72266;51.056;16.880;2023-11-21T11:26:46;8.00;;;3.10;;
72198;SDS011;72266;51.056;16.880;2023-11-21T11:29:26;7.20;;;2.60;;
72198;SDS011;72266;51.056;16.880;2023-11-21T11:32:08;12.20;;;4.70;;
72198;SDS011;72266;51.056;16.880;2023-11-21T11:34:47;17.30;;;7.50;;
72198;SDS011;72266;51.056;16.880;2023-11-21T11:37:27;19.40;;;8.60;;
72198;SDS011;72266;51.056;16.880;2023-11-21T11:40:01;21.20;;;9.40;;
72198;SDS011;72266;51.056;16.880;2023-11-21T11:42:34;20.90;;;8.90;;
72198;SDS011;72266;51.056;16.880;2023-11-21T11:45:18;17.70;;;8.20;;
72198;SDS011;72266;51.056;16.880;2023-11-21T11:47:56;15.70;;;7.00;;
72198;SDS011;72266;51.056;16.880;2023-11-21T11:50:30;17.40;;;7.60;;
72198;SDS011;72266;51.056;16.880;2023-11-21T11:53:14;16.10;;;7.40;;
72198;SDS011;72266;51.056;16.880;2023-11-21T11:55:48;18.00;;;8.70;;
72198;SDS011;72266;51.056;16.880;2023-11-21T11:58:38;19.10;;;8.30;;
72198;SDS011;72266;51.056;16.880;2023-11-21T12:01:12;22.80;;;11.40;;
72198;SDS011;72266;51.056;16.880;2023-11-21T12:03:51;23.00;;;10.40;;
72198;SDS011;72266;51.056;16.880;2023-11-21T12:07:06;22.70;;;10.70;;
72198;SDS011;72266;51.056;16.880;2023-11-21T12:09:39;16.90;;;7.80;;
72198;SDS011;72266;51.056;16.880;2023-11-21T12:12:14;25.20;;;11.10;;
72198;SDS011;72266;51.056;16.880;2023-11-21T12:14:49;18.70;;;8.20;;
72198;SDS011;72266;51.056;16.880;2023-11-21T12:17:23;19.60;;;8.40;;
72198;SDS011;72266;51.056;16.880;2023-11-21T12:20:02;22.50;;;9.50;;
72198;SDS011;72266;51.056;16.880;2023-11-21T12:22:45;17.50;;;7.60;;
72198;SDS011;72266;51.056;16.880;2023-11-21T12:25:19;16.10;;;6.80;;
72198;SDS011;72266;51.056;16.880;2023-11-21T12:27:53;19.50;;;8.60;;
72198;SDS011;72266;51.056;16.880;2023-11-21T12:30:28;18.10;;;7.10;;
72198;SDS011;72266;51.056;16.880;2023-11-21T12:33:02;20.80;;;9.10;;
72198;SDS011;72266;51.056;16.880;2023-11-21T12:35:39;20.90;;;8.20;;
72198;SDS011;72266;51.056;16.880;2023-11-21T12:38:14;19.50;;;8.20;;
72198;SDS011;72266;51.056;16.880;2023-11-21T12:40:48;18.40;;;7.40;;
72198;SDS011;72266;51.056;16.880;2023-11-21T12:43:24;20.20;;;8.30;;
72198;SDS011;72266;51.056;16.880;2023-11-21T12:46:05;18.00;;;8.30;;
72198;SDS011;72266;51.056;16.880;2023-11-21T12:48:40;17.50;;;7.30;;
72198;SDS011;72266;51.056;16.880;2023-11-21T12:51:14;15.60;;;6.50;;
72198;SDS011;72266;51.056;16.880;2023-11-21T12:53:48;19.50;;;6.70;;
72198;SDS011;72266;51.056;16.880;2023-11-21T12:56:22;17.90;;;7.50;;
72198;SDS011;72266;51.056;16.880;2023-11-21T12:58:57;15.70;;;6.60;;
72198;SDS011;72266;51.056;16.880;2023-11-21T13:01:38;15.00;;;5.90;;
72198;SDS011;72266;51.056;16.880;2023-11-21T13:04:15;13.90;;;6.20;;
72198;SDS011;72266;51.056;16.880;2023-11-21T13:06:48;13.60;;;5.10;;
72198;SDS011;72266;51.056;16.880;2023-11-21T13:09:22;13.80;;;5.80;;
72198;SDS011;72266;51.056;16.880;2023-11-21T13:12:00;11.90;;;4.90;;
72198;SDS011;72266;51.056;16.880;2023-11-21T13:14:34;10.90;;;4.50;;
72198;SDS011;72266;51.056;16.880;2023-11-21T13:17:08;12.30;;;4.30;;
72198;SDS011;72266;51.056;16.880;2023-11-21T13:19:43;11.80;;;5.10;;
72198;SDS011;72266;51.056;16.880;2023-11-21T13:22:17;13.30;;;5.30;;
72198;SDS011;72266;51.056;16.880;2023-11-21T13:24:50;14.70;;;5.90;;
72198;SDS011;72266;51.056;16.880;2023-11-21T13:27:24;11.40;;;4.70;;
72198;SDS011;72266;51.056;16.880;2023-11-21T13:29:57;11.90;;;4.40;;
72198;SDS011;72266;51.056;16.880;2023-11-21T13:32:31;15.40;;;7.00;;
72198;SDS011;72266;51.056;16.880;2023-11-21T13:35:05;13.50;;;6.20;;
72198;SDS011;72266;51.056;16.880;2023-11-21T13:37:45;14.60;;;7.00;;
72198;SDS011;72266;51.056;16.880;2023-11-21T13:40:22;44.80;;;23.60;;
72198;SDS011;72266;51.056;16.880;2023-11-21T13:42:56;44.60;;;26.20;;
72198;SDS011;72266;51.056;16.880;2023-11-21T13:45:34;16.50;;;8.40;;
72198;SDS011;72266;51.056;16.880;2023-11-21T13:48:11;19.50;;;10.90;;
72198;SDS011;72266;51.056;16.880;2023-11-21T13:50:49;13.50;;;6.90;;
72198;SDS011;72266;51.056;16.880;2023-11-21T13:53:28;12.00;;;5.80;;
72198;SDS011;72266;51.056;16.880;2023-11-21T13:56:03;12.80;;;6.10;;
72198;SDS011;72266;51.056;16.880;2023-11-21T13:58:37;12.10;;;5.80;;
72198;SDS011;72266;51.056;16.880;2023-11-21T14:01:16;11.90;;;4.90;;
72198;SDS011;72266;51.056;16.880;2023-11-21T14:04:15;13.20;;;5.20;;
72198;SDS011;72266;51.056;16.880;2023-11-21T14:07:01;13.10;;;5.50;;
72198;SDS011;72266;51.056;16.880;2023-11-21T14:09:52;14.50;;;5.10;;
72198;SDS011;72266;51.056;16.880;2023-11-21T14:12:26;11.20;;;4.60;;
72198;SDS011;72266;51.056;16.880;2023-11-21T14:15:08;9.80;;;3.90;;
72198;SDS011;72266;51.056;16.880;2023-11-21T14:17:47;13.60;;;6.80;;
72198;SDS011;72266;51.056;16.880;2023-11-21T14:20:21;15.30;;;5.70;;
72198;SDS011;72266;51.056;16.880;2023-11-21T14:22:54;10.60;;;5.20;;
72198;SDS011;72266;51.056;16.880;2023-11-21T14:25:28;11.50;;;5.20;;
72198;SDS011;72266;51.056;16.880;2023-11-21T14:28:02;11.60;;;3.90;;
72198;SDS011;72266;51.056;16.880;2023-11-21T14:30:36;11.40;;;4.10;;
72198;SDS011;72266;51.056;16.880;2023-11-21T14:33:09;9.90;;;4.10;;
72198;SDS011;72266;51.056;16.880;2023-11-21T14:35:42;10.30;;;4.70;;
72198;SDS011;72266;51.056;16.880;2023-11-21T14:38:17;10.30;;;4.30;;
72198;SDS011;72266;51.056;16.880;2023-11-21T14:40:50;10.70;;;4.60;;
72198;SDS011;72266;51.056;16.880;2023-11-21T14:43:23;10.40;;;4.60;;
72198;SDS011;72266;51.056;16.880;2023-11-21T14:45:59;10.70;;;4.70;;
72198;SDS011;72266;51.056;16.880;2023-11-21T14:48:33;10.40;;;4.20;;
72198;SDS011;72266;51.056;16.880;2023-11-21T14:51:12;13.50;;;5.40;;
72198;SDS011;72266;51.056;16.880;2023-11-21T14:54:00;12.00;;;5.00;;
72198;SDS011;72266;51.056;16.880;2023-11-21T14:56:36;14.70;;;6.40;;
72198;SDS011;72266;51.056;16.880;2023-11-21T14:59:12;13.80;;;6.60;;
72198;SDS011;72266;51.056;16.880;2023-11-21T15:01:47;11.00;;;5.10;;
72198;SDS011;72266;51.056;16.880;2023-11-21T15:04:25;13.80;;;6.40;;
72198;SDS011;72266;51.056;16.880;2023-11-21T15:07:06;13.40;;;6.40;;
72198;SDS011;72266;51.056;16.880;2023-11-21T15:09:41;12.10;;;5.50;;